Time;durP1;ratioP1;P1;durP2;ratioP2;P2;SDS_P1;SDS_P2;PMS_P1;PMS_P2;Temp;Humidity;BMP_temperature;BMP_pressure;BME280_temperature;BME280_humidity;BME280_pressure;Samples;Min_cycle;Max_cycle;Signal;HPM_P1;HPM_P2
2022/07/08 00:01:37;;;;;;;3.97;1.65;;;15.80;99.90;;;;;;5083957;28;20040;-61
2022/07/08 00:04:03;;;;;;;5.60;1.88;;;15.70;99.90;;;;;;5093339;28;20036;-61
2022/07/08 00:06:29;;;;;;;5.03;1.80;;;15.70;99.90;;;;;;5092141;28;20497;-61
2022/07/08 00:08:55;;;;;;;8.82;2.08;;;15.70;99.90;;;;;;5093314;28;20024;-60
2022/07/08 00:11:20;;;;;;;6.97;1.85;;;15.60;99.90;;;;;;5092479;28;20024;-61
2022/07/08 00:13:46;;;;;;;9.57;2.40;;;15.60;99.90;;;;;;5093284;28;20016;-61
2022/07/08 00:16:11;;;;;;;10.02;1.98;;;15.60;99.90;;;;;;5093445;28;20024;-61
2022/07/08 00:18:37;;;;;;;6.85;2.03;;;15.60;99.90;;;;;;5092699;28;20440;-61
2022/07/08 00:21:03;;;;;;;11.50;2.05;;;15.60;99.90;;;;;;5092855;28;20081;-61
2022/07/08 00:23:28;;;;;;;6.15;2.38;;;15.60;99.90;;;;;;5092866;28;20077;-61
2022/07/08 00:25:54;;;;;;;6.07;1.58;;;15.50;99.90;;;;;;5093035;28;20028;-61
2022/07/08 00:28:19;;;;;;;12.55;2.00;;;15.50;99.90;;;;;;5092775;28;20416;-61
2022/07/08 00:30:45;;;;;;;5.18;1.77;;;15.50;99.90;;;;;;5091128;28;20032;-59
2022/07/08 00:33:10;;;;;;;16.13;2.45;;;15.50;99.90;;;;;;5092850;28;20107;-61
2022/07/08 00:35:36;;;;;;;7.22;1.98;;;15.50;99.90;;;;;;5092416;28;20099;-61
2022/07/08 00:38:01;;;;;;;7.50;2.10;;;15.50;99.90;;;;;;5092685;28;20470;-61
2022/07/08 00:40:27;;;;;;;10.07;1.90;;;15.50;99.90;;;;;;5092795;28;20066;-61
2022/07/08 00:42:52;;;;;;;10.85;1.95;;;15.50;99.90;;;;;;5091773;28;20496;-61
2022/07/08 00:45:18;;;;;;;5.85;1.58;;;15.50;99.90;;;;;;5093090;28;20020;-61
2022/07/08 00:47:44;;;;;;;6.72;2.00;;;15.50;99.90;;;;;;5092140;28;20027;-58
2022/07/08 00:50:10;;;;;;;10.75;1.80;;;15.50;99.90;;;;;;5092797;28;20114;-60
2022/07/08 00:52:38;;;;;;;8.77;1.92;;;15.50;99.90;;;;;;5092563;28;20028;-61
2022/07/08 00:55:04;;;;;;;9.95;1.90;;;15.50;99.90;;;;;;5092182;28;20020;-61
2022/07/08 00:57:30;;;;;;;7.10;1.70;;;15.50;99.90;;;;;;5092358;28;20028;-59
2022/07/08 00:59:56;;;;;;;10.57;2.20;;;15.50;99.90;;;;;;5092406;28;20024;-61
2022/07/08 01:02:21;;;;;;;3.88;1.85;;;15.50;99.90;;;;;;5091975;28;20063;-61
2022/07/08 01:04:48;;;;;;;6.95;1.98;;;15.50;99.90;;;;;;5091924;28;20111;-61
2022/07/08 01:07:13;;;;;;;10.90;2.63;;;15.50;99.90;;;;;;5092809;28;20485;-60
2022/07/08 01:09:39;;;;;;;8.05;2.33;;;15.50;99.90;;;;;;5090913;28;20107;-61
2022/07/08 01:12:05;;;;;;;9.77;2.30;;;15.50;99.90;;;;;;5091173;28;20016;-59
2022/07/08 01:14:31;;;;;;;14.57;3.80;;;15.50;99.90;;;;;;5092175;28;20032;-60
2022/07/08 01:16:57;;;;;;;6.30;1.90;;;15.50;99.90;;;;;;5091871;28;20032;-60
2022/07/08 01:19:22;;;;;;;7.95;1.95;;;15.50;99.90;;;;;;5091711;28;20030;-61
2022/07/08 01:21:48;;;;;;;9.85;2.45;;;15.50;99.90;;;;;;5090899;28;20063;-62
2022/07/08 01:24:13;;;;;;;6.82;2.08;;;15.50;99.90;;;;;;5091866;28;20024;-61
2022/07/08 01:26:39;;;;;;;11.15;2.63;;;15.50;99.90;;;;;;5091628;28;20028;-59
2022/07/08 01:29:04;;;;;;;11.63;2.72;;;15.50;99.90;;;;;;5091760;28;20375;-60
2022/07/08 01:31:30;;;;;;;5.57;2.10;;;15.50;99.90;;;;;;5091338;28;20028;-61
2022/07/08 01:33:56;;;;;;;10.98;2.85;;;15.50;99.90;;;;;;5091411;28;20115;-61
2022/07/08 01:36:21;;;;;;;17.27;2.72;;;15.50;99.90;;;;;;5092118;28;20670;-60
2022/07/08 01:38:47;;;;;;;14.27;2.55;;;15.50;99.90;;;;;;5091391;28;20029;-60
2022/07/08 01:41:12;;;;;;;10.75;2.22;;;15.50;99.90;;;;;;5091127;28;20048;-60
2022/07/08 01:43:38;;;;;;;6.53;2.30;;;15.50;99.90;;;;;;5091371;28;20486;-61
2022/07/08 01:46:04;;;;;;;10.02;2.33;;;15.40;99.90;;;;;;5091292;28;20038;-60
2022/07/08 01:48:29;;;;;;;7.35;2.08;;;15.40;99.90;;;;;;5091332;28;20039;-60
2022/07/08 01:50:55;;;;;;;19.25;2.63;;;15.40;99.90;;;;;;5091268;28;20405;-61
2022/07/08 01:53:20;;;;;;;15.15;2.47;;;15.40;99.90;;;;;;5090939;28;20560;-60
2022/07/08 01:55:47;;;;;;;9.60;2.35;;;15.40;99.90;;;;;;5091353;28;20416;-61
2022/07/08 01:58:13;;;;;;;7.60;2.75;;;15.40;99.90;;;;;;5087452;28;20016;-61
2022/07/08 02:00:38;;;;;;;7.40;2.40;;;15.50;99.90;;;;;;5090338;28;20024;-61
2022/07/08 02:03:04;;;;;;;10.80;2.20;;;15.40;99.90;;;;;;5091055;28;20559;-61
2022/07/08 02:05:32;;;;;;;9.18;2.25;;;15.40;99.90;;;;;;5091086;28;20089;-61
2022/07/08 02:07:58;;;;;;;7.90;2.38;;;15.50;99.90;;;;;;5091092;28;20034;-61
2022/07/08 02:10:24;;;;;;;12.93;2.55;;;15.40;99.90;;;;;;5090489;28;20020;-59
2022/07/08 02:12:49;;;;;;;16.02;2.63;;;15.40;99.90;;;;;;5090914;28;20482;-61
2022/07/08 02:15:15;;;;;;;11.18;2.75;;;15.40;99.90;;;;;;5090577;28;20554;-61
2022/07/08 02:17:42;;;;;;;11.60;2.50;;;15.40;99.90;;;;;;5090928;28;20095;-61
2022/07/08 02:20:13;;;;;;;11.77;2.47;;;15.40;99.90;;;;;;5090619;28;20028;-60
2022/07/08 02:22:39;;;;;;;8.38;2.60;;;15.40;99.90;;;;;;5090770;28;20810;-61
2022/07/08 02:25:05;;;;;;;13.15;2.00;;;15.40;99.90;;;;;;5090820;28;20388;-61
2022/07/08 02:27:31;;;;;;;8.13;2.08;;;15.40;99.90;;;;;;5090570;28;20032;-61
2022/07/08 02:29:56;;;;;;;7.68;2.25;;;15.30;99.90;;;;;;5090525;28;20550;-61
2022/07/08 02:32:22;;;;;;;12.70;2.10;;;15.30;99.90;;;;;;5090300;28;20035;-61
2022/07/08 02:34:48;;;;;;;5.93;2.38;;;15.30;99.90;;;;;;5090589;28;20390;-59
2022/07/08 02:37:13;;;;;;;5.78;2.08;;;15.30;99.90;;;;;;5090594;28;20016;-61
2022/07/08 02:39:39;;;;;;;10.75;2.05;;;15.40;99.90;;;;;;5089840;28;20020;-62
2022/07/08 02:42:05;;;;;;;11.30;2.72;;;15.30;99.90;;;;;;5090373;28;20035;-61
2022/07/08 02:44:31;;;;;;;11.55;2.58;;;15.30;99.90;;;;;;5090432;28;20028;-61
2022/07/08 02:46:56;;;;;;;7.30;1.85;;;15.30;99.90;;;;;;5090231;28;20035;-61
2022/07/08 02:49:22;;;;;;;9.77;2.22;;;15.30;99.90;;;;;;5090703;28;20089;-59
2022/07/08 02:51:48;;;;;;;6.13;2.38;;;15.30;99.90;;;;;;5089757;28;20020;-61
2022/07/08 02:54:13;;;;;;;4.78;1.77;;;15.30;99.90;;;;;;5089099;28;20449;-60
2022/07/08 02:56:39;;;;;;;10.85;2.45;;;15.20;99.90;;;;;;5089909;28;20111;-60
2022/07/08 02:59:04;;;;;;;9.65;2.17;;;15.20;99.90;;;;;;5090030;28;20024;-61
2022/07/08 03:01:31;;;;;;;9.13;2.03;;;15.20;99.90;;;;;;5090154;28;20477;-61
2022/07/08 03:03:56;;;;;;;11.63;2.00;;;15.10;99.90;;;;;;5090682;28;20016;-61
2022/07/08 03:06:22;;;;;;;8.70;2.22;;;15.10;99.90;;;;;;5090304;28;20081;-61
2022/07/08 03:08:47;;;;;;;7.50;2.30;;;15.10;99.90;;;;;;5089360;28;20085;-61
2022/07/08 03:11:13;;;;;;;10.38;2.55;;;15.10;99.90;;;;;;5089645;28;20103;-60
2022/07/08 03:13:39;;;;;;;13.30;2.40;;;15.10;99.90;;;;;;5090028;28;20020;-60
2022/07/08 03:16:06;;;;;;;12.93;2.65;;;15.10;99.90;;;;;;5090176;28;20028;-61
2022/07/08 03:18:32;;;;;;;14.57;2.42;;;15.10;99.90;;;;;;5090343;28;20077;-61
2022/07/08 03:20:58;;;;;;;13.73;2.35;;;15.10;99.90;;;;;;5090012;28;20122;-61
2022/07/08 03:23:23;;;;;;;11.48;2.25;;;15.10;99.90;;;;;;5089605;28;20104;-61
2022/07/08 03:25:49;;;;;;;15.00;2.88;;;15.00;99.90;;;;;;5090089;28;20027;-61
2022/07/08 03:28:14;;;;;;;15.43;2.55;;;15.00;99.90;;;;;;5089499;28;20059;-61
2022/07/08 03:30:40;;;;;;;9.57;2.70;;;15.00;99.90;;;;;;5090436;28;20032;-61
2022/07/08 03:33:06;;;;;;;5.63;2.65;;;15.00;99.90;;;;;;5089815;28;20398;-61
2022/07/08 03:35:31;;;;;;;9.25;2.47;;;15.00;99.90;;;;;;5089905;28;20382;-61
2022/07/08 03:37:57;;;;;;;6.53;2.33;;;15.00;99.90;;;;;;5090207;28;20060;-60
2022/07/08 03:43:06;;;;;;;9.48;2.47;;;15.00;99.90;;;;;;5089717;28;20056;-60
2022/07/08 03:45:32;;;;;;;5.93;2.03;;;15.10;99.90;;;;;;5089435;28;20103;-61
2022/07/08 03:48:00;;;;;;;10.95;2.05;;;15.00;99.90;;;;;;5089819;28;20031;-62
2022/07/08 03:50:26;;;;;;;5.07;1.88;;;15.00;99.90;;;;;;5089868;28;20020;-61
2022/07/08 03:52:51;;;;;;;5.57;1.90;;;15.10;99.90;;;;;;5089313;28;20036;-60
2022/07/08 03:55:17;;;;;;;10.35;2.17;;;15.10;99.90;;;;;;5090005;28;20024;-61
2022/07/08 03:57:42;;;;;;;9.73;2.15;;;15.10;99.90;;;;;;5089817;28;20047;-58
2022/07/08 04:00:09;;;;;;;6.57;2.30;;;15.10;99.90;;;;;;5090126;28;20031;-60
2022/07/08 04:02:35;;;;;;;6.18;2.40;;;15.10;99.90;;;;;;5082273;28;20020;-61
2022/07/08 04:05:01;;;;;;;7.30;2.38;;;15.10;99.90;;;;;;5071773;28;20030;-62
2022/07/08 04:07:26;;;;;;;7.90;2.33;;;15.10;99.90;;;;;;5091857;28;20116;-60
2022/07/08 04:09:52;;;;;;;12.85;2.70;;;15.10;99.90;;;;;;5093404;28;20016;-62
2022/07/08 04:12:18;;;;;;;15.82;2.53;;;15.10;99.90;;;;;;5092959;28;20020;-60
2022/07/08 04:14:43;;;;;;;4.93;2.17;;;15.10;99.90;;;;;;5092845;28;20049;-61
2022/07/08 04:17:09;;;;;;;7.25;2.33;;;15.10;99.90;;;;;;5093055;28;20032;-61
2022/07/08 04:22:19;;;;;;;11.52;2.30;;;15.10;99.90;;;;;;5067750;28;20051;-66
2022/07/08 04:24:45;;;;;;;5.20;2.22;;;15.10;99.90;;;;;;5072538;28;20016;-66
2022/07/08 04:27:10;;;;;;;9.48;2.85;;;15.10;99.90;;;;;;5072423;28;20023;-66
2022/07/08 04:29:36;;;;;;;5.38;2.40;;;15.10;99.90;;;;;;5071251;28;20070;-66
2022/07/08 04:32:02;;;;;;;15.60;2.58;;;15.10;99.90;;;;;;5072086;28;20032;-67
2022/07/08 04:34:27;;;;;;;7.03;1.88;;;15.10;99.90;;;;;;5071733;28;20074;-67
2022/07/08 04:36:53;;;;;;;8.68;2.80;;;15.10;99.90;;;;;;5072366;28;20461;-66
2022/07/08 04:39:18;;;;;;;3.80;2.03;;;15.10;99.90;;;;;;5072368;28;20434;-67
2022/07/08 04:41:44;;;;;;;6.43;2.80;;;15.20;99.90;;;;;;5071672;28;20032;-67
2022/07/08 04:44:09;;;;;;;9.27;2.35;;;15.20;99.90;;;;;;5072451;28;20017;-67
2022/07/08 04:46:35;;;;;;;13.88;2.58;;;15.20;99.90;;;;;;5071641;28;20016;-67
2022/07/08 04:49:00;;;;;;;9.15;2.60;;;15.20;99.90;;;;;;5071968;28;20024;-67
2022/07/08 04:51:26;;;;;;;10.02;2.55;;;15.20;99.90;;;;;;5071365;28;20047;-67
2022/07/08 04:53:51;;;;;;;13.50;2.80;;;15.20;99.90;;;;;;5071440;28;20024;-66
2022/07/08 04:56:17;;;;;;;10.88;2.70;;;15.20;99.90;;;;;;5071824;28;20402;-67
2022/07/08 04:58:42;;;;;;;7.38;2.05;;;15.20;99.90;;;;;;5070761;28;20048;-66
2022/07/08 05:01:08;;;;;;;8.13;2.85;;;15.20;99.90;;;;;;5071770;28;20092;-66
2022/07/08 05:03:33;;;;;;;8.45;2.50;;;15.20;99.90;;;;;;5071180;28;20033;-66
2022/07/08 05:05:59;;;;;;;5.25;2.63;;;15.20;99.90;;;;;;5071564;28;20029;-66
2022/07/08 05:08:25;;;;;;;9.50;2.40;;;15.20;99.90;;;;;;5071646;28;20044;-66
2022/07/08 05:10:50;;;;;;;11.20;2.75;;;15.20;99.90;;;;;;5071199;28;20020;-66
2022/07/08 05:13:16;;;;;;;6.50;2.53;;;15.20;99.90;;;;;;5070934;28;20066;-66
2022/07/08 05:15:42;;;;;;;11.95;2.65;;;15.20;99.90;;;;;;5070679;28;20024;-67
2022/07/08 05:18:07;;;;;;;7.07;2.58;;;15.10;99.90;;;;;;5071422;28;20030;-66
2022/07/08 05:20:33;;;;;;;5.68;2.63;;;15.10;99.90;;;;;;5071192;28;20036;-67
2022/07/08 05:22:58;;;;;;;9.80;2.60;;;15.10;99.90;;;;;;5070676;28;20024;-67
2022/07/08 05:25:24;;;;;;;13.32;3.10;;;15.10;99.90;;;;;;5070679;28;20029;-67
2022/07/08 05:27:50;;;;;;;11.75;2.80;;;15.20;99.90;;;;;;5070948;28;20042;-67
2022/07/08 05:30:15;;;;;;;8.73;2.53;;;15.20;99.90;;;;;;5070726;28;20500;-67
2022/07/08 05:32:41;;;;;;;13.98;2.88;;;15.20;99.90;;;;;;5071191;28;20056;-67
2022/07/08 05:35:07;;;;;;;12.90;2.72;;;15.20;99.90;;;;;;5070924;28;20016;-66
2022/07/08 05:37:37;;;;;;;10.32;2.50;;;15.10;99.90;;;;;;5070558;28;20051;-66
2022/07/08 05:40:05;;;;;;;12.75;2.42;;;15.20;99.90;;;;;;5072067;28;20041;-67
2022/07/08 05:42:30;;;;;;;10.57;3.00;;;15.20;99.90;;;;;;5051957;28;20025;-67
2022/07/08 05:44:56;;;;;;;9.45;2.63;;;15.20;99.90;;;;;;5052252;28;20421;-67
2022/07/08 05:47:21;;;;;;;8.23;2.60;;;15.20;99.90;;;;;;5052172;28;20028;-67
2022/07/08 05:49:47;;;;;;;11.77;2.63;;;15.20;99.90;;;;;;5052097;28;20036;-68
2022/07/08 05:52:13;;;;;;;7.30;2.42;;;15.30;99.90;;;;;;5051795;28;20028;-67
2022/07/08 05:54:39;;;;;;;7.63;2.45;;;15.30;99.90;;;;;;5052338;28;20379;-66
2022/07/08 05:57:05;;;;;;;10.10;2.63;;;15.30;99.90;;;;;;5050669;28;20358;-67
2022/07/08 05:59:31;;;;;;;11.48;2.55;;;15.30;99.90;;;;;;5057460;28;20470;-67
2022/07/08 06:01:57;;;;;;;13.73;3.03;;;15.30;99.90;;;;;;5071559;28;20027;-67
2022/07/08 06:04:22;;;;;;;15.27;2.83;;;15.30;99.90;;;;;;5069991;28;20088;-67
2022/07/08 06:06:48;;;;;;;16.60;2.92;;;15.30;99.90;;;;;;5070585;28;20110;-66
2022/07/08 06:09:14;;;;;;;11.60;3.10;;;15.30;99.90;;;;;;5071676;28;20085;-66
2022/07/08 06:11:39;;;;;;;15.98;3.95;;;15.30;99.90;;;;;;5071363;28;20029;-66
2022/07/08 06:14:05;;;;;;;14.38;3.53;;;15.30;99.90;;;;;;5071306;28;20480;-67
2022/07/08 06:16:31;;;;;;;9.73;2.80;;;15.40;99.90;;;;;;5071729;28;20032;-67
2022/07/08 06:18:56;;;;;;;14.60;3.30;;;15.40;99.90;;;;;;5071738;28;20025;-67
2022/07/08 06:21:22;;;;;;;10.40;2.70;;;15.30;99.90;;;;;;5071132;28;20078;-67
2022/07/08 06:23:47;;;;;;;8.23;2.88;;;15.40;99.90;;;;;;5071401;28;20466;-67
2022/07/08 06:26:13;;;;;;;12.90;3.00;;;15.40;99.90;;;;;;5071245;28;20020;-67
2022/07/08 06:28:39;;;;;;;13.80;3.05;;;15.50;99.90;;;;;;5070576;28;20358;-68
2022/07/08 06:31:04;;;;;;;13.88;3.28;;;15.60;99.90;;;;;;5071333;28;20479;-67
2022/07/08 06:33:30;;;;;;;11.05;3.72;;;15.70;99.90;;;;;;5071070;28;20020;-67
2022/07/08 06:35:55;;;;;;;15.90;2.88;;;15.70;99.90;;;;;;5071438;28;20013;-67
2022/07/08 06:38:21;;;;;;;6.50;2.30;;;15.80;99.90;;;;;;5071309;28;20027;-67
2022/07/08 06:40:47;;;;;;;6.25;2.40;;;15.80;99.90;;;;;;5070953;28;20017;-67
2022/07/08 06:43:12;;;;;;;8.52;3.10;;;15.80;99.90;;;;;;5071214;28;20024;-68
2022/07/08 06:45:38;;;;;;;9.18;2.55;;;15.80;99.90;;;;;;5071249;28;20088;-67
2022/07/08 06:48:04;;;;;;;11.23;2.65;;;15.90;99.90;;;;;;5071202;28;20178;-67
2022/07/08 06:50:30;;;;;;;10.98;2.53;;;15.90;99.90;;;;;;5069673;28;20612;-68
2022/07/08 06:52:55;;;;;;;12.23;2.85;;;16.00;99.90;;;;;;5070870;28;20021;-67
2022/07/08 06:55:22;;;;;;;7.15;2.47;;;16.20;99.90;;;;;;5070766;28;20048;-67
2022/07/08 06:57:47;;;;;;;10.52;3.13;;;16.30;99.90;;;;;;5070412;28;20044;-67
2022/07/08 07:00:14;;;;;;;9.82;2.38;;;16.30;99.90;;;;;;5071063;28;20044;-67
2022/07/08 07:02:39;;;;;;;9.95;3.20;;;16.50;99.90;;;;;;5070867;28;20116;-67
2022/07/08 07:05:06;;;;;;;11.18;3.58;;;16.70;99.90;;;;;;5071007;28;20060;-67
2022/07/08 07:07:32;;;;;;;9.43;2.78;;;16.80;99.90;;;;;;5071142;28;20052;-67
2022/07/08 07:09:57;;;;;;;6.75;2.75;;;16.90;99.90;;;;;;5070543;28;20056;-66
2022/07/08 07:12:23;;;;;;;9.65;3.03;;;16.80;99.90;;;;;;5069577;28;20028;-67
2022/07/08 07:14:48;;;;;;;6.82;2.20;;;16.70;99.90;;;;;;5070944;28;20437;-67
2022/07/08 07:17:19;;;;;;;6.97;3.47;;;16.70;99.90;;;;;;5070972;28;20025;-66
2022/07/08 07:19:46;;;;;;;7.65;1.95;;;16.60;99.90;;;;;;5070910;28;20070;-66
2022/07/08 07:22:13;;;;;;;7.35;2.40;;;16.50;99.90;;;;;;5069148;28;20031;-66
2022/07/08 07:24:39;;;;;;;10.93;1.95;;;16.40;99.90;;;;;;5070746;28;20058;-66
2022/07/08 07:27:04;;;;;;;9.35;2.28;;;16.40;99.90;;;;;;5070792;28;20056;-66
2022/07/08 07:29:30;;;;;;;7.97;2.60;;;16.40;99.90;;;;;;5071206;28;20024;-66
2022/07/08 07:31:55;;;;;;;10.13;2.47;;;16.30;99.90;;;;;;5071002;28;20033;-66
2022/07/08 07:34:21;;;;;;;10.63;2.42;;;16.30;99.90;;;;;;5071230;28;20096;-67
2022/07/08 07:36:46;;;;;;;5.25;3.00;;;16.50;99.90;;;;;;5070960;28;20370;-66
2022/07/08 07:39:12;;;;;;;7.30;2.88;;;16.60;99.90;;;;;;5071742;28;20431;-67
2022/07/08 07:41:38;;;;;;;8.93;3.78;;;16.70;99.90;;;;;;5074700;28;20601;-66
2022/07/08 07:44:04;;;;;;;8.07;3.42;;;16.80;99.90;;;;;;5074995;28;20371;-67
2022/07/08 07:46:30;;;;;;;9.52;4.65;;;16.80;99.90;;;;;;5074926;28;20028;-68
2022/07/08 07:48:56;;;;;;;5.90;3.90;;;16.80;99.90;;;;;;5074834;28;20025;-66
2022/07/08 07:51:22;;;;;;;12.40;4.28;;;16.80;99.90;;;;;;5074096;28;20013;-66
2022/07/08 07:53:47;;;;;;;6.00;2.42;;;16.90;99.90;;;;;;5074632;28;20024;-66
2022/07/08 07:56:13;;;;;;;10.18;1.90;;;17.00;99.90;;;;;;5074770;28;20494;-66
2022/07/08 07:58:39;;;;;;;10.55;2.30;;;17.10;99.90;;;;;;5074681;28;20044;-67
2022/07/08 08:01:05;;;;;;;6.18;2.72;;;17.20;99.90;;;;;;5074604;28;20032;-66
2022/07/08 08:03:31;;;;;;;5.45;2.67;;;17.30;99.90;;;;;;5071159;28;20024;-67
2022/07/08 08:05:57;;;;;;;9.32;3.35;;;17.20;99.90;;;;;;5073741;28;20095;-67
2022/07/08 08:08:24;;;;;;;6.47;2.80;;;17.20;99.90;;;;;;5074326;28;20078;-67
2022/07/08 08:10:50;;;;;;;6.80;3.60;;;17.30;99.90;;;;;;5074542;28;20028;-67
2022/07/08 08:13:16;;;;;;;7.80;3.00;;;17.40;99.90;;;;;;5073976;28;20025;-67
2022/07/08 08:15:41;;;;;;;10.05;2.90;;;17.50;99.90;;;;;;5074205;28;20366;-68
2022/07/08 08:18:07;;;;;;;9.50;2.35;;;17.40;99.90;;;;;;5074388;28;20427;-67
2022/07/08 08:20:32;;;;;;;11.02;2.97;;;17.40;99.90;;;;;;5074047;28;20036;-67
2022/07/08 08:22:58;;;;;;;9.82;2.53;;;17.40;99.90;;;;;;5073998;28;20475;-68
2022/07/08 08:25:24;;;;;;;6.18;2.83;;;17.50;99.90;;;;;;5074280;28;20099;-67
2022/07/08 08:27:50;;;;;;;8.68;3.10;;;17.60;99.90;;;;;;5074191;28;20548;-67
2022/07/08 08:30:17;;;;;;;5.60;2.70;;;17.60;99.90;;;;;;5073883;28;20027;-67
2022/07/08 08:32:43;;;;;;;11.18;3.30;;;17.60;99.90;;;;;;5073880;28;20035;-68
2022/07/08 08:35:11;;;;;;;7.60;2.90;;;17.50;99.90;;;;;;5073880;28;20055;-67
2022/07/08 08:37:37;;;;;;;13.00;2.78;;;17.70;99.90;;;;;;5073943;28;20091;-68
2022/07/08 08:40:08;;;;;;;7.75;3.08;;;17.80;99.90;;;;;;5073956;28;20159;-68
2022/07/08 08:42:34;;;;;;;8.30;2.50;;;17.90;99.90;;;;;;5073654;28;20043;-67
2022/07/08 08:45:02;;;;;;;8.05;2.58;;;18.10;99.90;;;;;;5073656;28;20459;-67
2022/07/08 08:47:29;;;;;;;4.10;2.08;;;18.00;99.90;;;;;;5073877;28;20027;-68
2022/07/08 08:49:56;;;;;;;5.15;2.33;;;18.10;99.90;;;;;;5073525;28;20473;-67
2022/07/08 08:52:23;;;;;;;11.45;2.03;;;18.20;99.90;;;;;;5071862;28;20024;-67
2022/07/08 08:54:51;;;;;;;7.97;2.60;;;18.30;99.90;;;;;;5073420;28;20012;-68
2022/07/08 08:57:18;;;;;;;6.28;2.17;;;18.30;99.90;;;;;;5073632;28;20052;-68
2022/07/08 08:59:45;;;;;;;9.23;2.22;;;18.40;99.90;;;;;;5073665;28;20028;-67
2022/07/08 09:02:11;;;;;;;8.73;1.90;;;18.40;99.90;;;;;;5073225;28;20020;-67
2022/07/08 09:04:38;;;;;;;7.57;2.00;;;18.60;99.90;;;;;;5073409;28;20138;-67
2022/07/08 09:07:04;;;;;;;9.60;2.10;;;18.60;99.90;;;;;;5073742;28;20465;-68
2022/07/08 09:09:29;;;;;;;12.15;2.50;;;18.60;99.90;;;;;;5073112;28;20101;-67
2022/07/08 09:11:55;;;;;;;6.47;2.28;;;18.60;99.90;;;;;;5072908;28;20470;-68
2022/07/08 09:14:22;;;;;;;7.22;2.22;;;18.50;99.90;;;;;;5073327;28;20032;-67
2022/07/08 09:17:12;;;;;;;6.88;1.90;;;18.40;99.90;;;;;;5073179;28;20112;-67
2022/07/08 09:19:42;;;;;;;7.03;2.03;;;18.60;99.90;;;;;;5072148;28;20016;-67
2022/07/08 09:22:08;;;;;;;5.57;1.90;;;18.70;99.90;;;;;;5072728;28;20067;-67
2022/07/08 09:24:39;;;;;;;9.60;2.00;;;18.70;99.90;;;;;;5072959;28;20506;-67
2022/07/08 09:27:06;;;;;;;4.05;1.80;;;18.80;99.90;;;;;;5073081;28;20551;-66
2022/07/08 09:29:32;;;;;;;11.75;2.10;;;18.80;99.90;;;;;;5072998;28;20086;-67
2022/07/08 09:32:15;;;;;;;8.50;2.25;;;18.80;99.90;;;;;;5072753;28;20471;-68
2022/07/08 09:34:41;;;;;;;3.85;2.20;;;19.00;99.90;;;;;;5072622;28;20107;-67
2022/07/08 09:37:15;;;;;;;4.85;1.70;;;19.20;99.90;;;;;;5072913;28;20129;-68
2022/07/08 09:39:42;;;;;;;12.23;3.00;;;19.30;99.90;;;;;;5072952;28;20390;-68
2022/07/08 09:42:08;;;;;;;7.68;2.28;;;19.30;99.90;;;;;;5072908;28;20025;-67
2022/07/08 09:44:35;;;;;;;5.47;2.17;;;19.50;99.90;;;;;;5073320;28;20051;-67
2022/07/08 09:47:08;;;;;;;9.43;2.63;;;19.50;99.90;;;;;;5072936;28;20024;-68
2022/07/08 09:49:34;;;;;;;4.68;2.20;;;19.50;99.90;;;;;;5074396;28;20070;-67
2022/07/08 09:52:00;;;;;;;6.57;1.90;;;19.60;99.90;;;;;;5073669;28;20489;-68
2022/07/08 09:54:27;;;;;;;11.93;2.55;;;19.60;99.90;;;;;;5073557;28;20664;-67
2022/07/08 09:57:04;;;;;;;5.47;2.08;;;19.60;99.90;;;;;;5067407;28;20013;-67
2022/07/08 09:59:31;;;;;;;8.43;2.85;;;19.60;99.90;;;;;;5052686;28;20045;-68
2022/07/08 10:01:58;;;;;;;6.43;2.95;;;19.40;99.90;;;;;;5059433;28;20020;-67
2022/07/08 10:04:25;;;;;;;7.93;2.65;;;19.10;99.90;;;;;;5072965;28;20108;-67
2022/07/08 10:06:52;;;;;;;8.75;2.70;;;18.90;99.90;;;;;;5072391;28;20041;-67
2022/07/08 10:09:19;;;;;;;10.30;2.78;;;19.00;99.90;;;;;;5072351;28;20024;-67
2022/07/08 10:11:45;;;;;;;4.60;2.03;;;19.40;99.90;;;;;;5072276;28;20024;-67
2022/07/08 10:14:11;;;;;;;5.43;1.90;;;19.70;99.90;;;;;;5072233;28;20371;-67
2022/07/08 10:16:39;;;;;;;11.52;2.72;;;19.90;99.90;;;;;;5072133;28;20025;-66
2022/07/08 10:19:09;;;;;;;5.30;2.40;;;20.10;99.90;;;;;;5072380;28;20095;-66
2022/07/08 10:21:38;;;;;;;10.35;2.30;;;20.20;99.90;;;;;;5071596;28;20039;-66
2022/07/08 10:24:07;;;;;;;8.45;1.38;;;20.20;99.90;;;;;;5094496;22;20125;-62
2022/07/08 10:26:36;;;;;;;6.20;1.92;;;20.40;99.90;;;;;;5070101;28;20021;-61
2022/07/08 10:29:04;;;;;;;7.10;2.58;;;20.60;99.90;;;;;;5070073;28;20097;-62
2022/07/08 10:31:40;;;;;;;7.47;2.00;;;20.40;99.90;;;;;;5069441;28;20060;-61
2022/07/08 10:34:08;;;;;;;4.88;1.90;;;20.60;99.90;;;;;;5055724;28;20025;-63
2022/07/08 10:36:48;;;;;;;4.68;1.55;;;20.90;99.90;;;;;;5050529;28;20415;-62
2022/07/08 10:39:14;;;;;;;4.82;1.95;;;21.30;99.90;;;;;;5050113;28;20028;-63
2022/07/08 10:41:40;;;;;;;7.25;1.92;;;21.50;99.90;;;;;;5049767;28;20021;-63
2022/07/08 10:44:06;;;;;;;4.65;1.67;;;21.60;99.90;;;;;;5050068;28;20103;-62
2022/07/08 10:46:32;;;;;;;9.55;1.77;;;21.50;99.90;;;;;;5049969;28;20444;-62
2022/07/08 10:48:59;;;;;;;5.85;1.77;;;21.70;99.90;;;;;;5050024;28;20025;-62
2022/07/08 10:51:25;;;;;;;4.30;1.90;;;21.70;99.90;;;;;;5049650;28;20020;-62
2022/07/08 10:53:59;;;;;;;5.65;1.65;;;21.50;99.90;;;;;;5049295;28;20025;-62
2022/07/08 10:56:58;;;;;;;13.05;1.83;;;21.30;99.90;;;;;;5048858;28;20075;-63
2022/07/08 10:59:28;;;;;;;5.50;2.00;;;21.50;99.90;;;;;;5049834;28;20398;-62
2022/07/08 11:01:54;;;;;;;7.05;1.70;;;21.50;99.90;;;;;;5049153;28;20542;-63
2022/07/08 11:04:42;;;;;;;7.05;1.90;;;21.60;99.90;;;;;;5049630;28;20112;-63
2022/07/08 11:07:17;;;;;;;3.65;1.63;;;21.90;99.90;;;;;;5049262;28;20028;-61
2022/07/08 11:09:44;;;;;;;4.85;2.22;;;22.30;99.90;;;;;;5049503;28;20110;-60
2022/07/08 11:12:24;;;;;;;9.13;1.45;;;22.50;99.90;;;;;;5049769;28;20375;-61
2022/07/08 11:14:51;;;;;;;3.10;1.38;;;22.30;99.90;;;;;;5051761;28;20017;-62
2022/07/08 11:17:18;;;;;;;3.55;1.67;;;22.30;99.90;;;;;;5053937;28;20013;-63
2022/07/08 11:19:45;;;;;;;5.90;1.70;;;22.40;99.90;;;;;;5053813;28;20025;-62
2022/07/08 11:22:11;;;;;;;5.43;1.52;;;22.30;99.90;;;;;;5053154;28;20029;-63
2022/07/08 11:24:42;;;;;;;9.23;1.50;;;22.30;99.90;;;;;;5052666;28;20039;-63
2022/07/08 11:27:08;;;;;;;8.45;1.80;;;22.40;99.90;;;;;;5053585;28;20025;-62
2022/07/08 11:29:35;;;;;;;6.63;1.50;;;22.70;99.90;;;;;;5053625;28;20025;-63
2022/07/08 11:32:03;;;;;;;4.68;1.42;;;22.80;99.90;;;;;;5052415;28;20079;-63
2022/07/08 11:34:29;;;;;;;8.68;1.52;;;22.80;99.90;;;;;;5053536;28;20089;-62
2022/07/08 11:36:55;;;;;;;3.88;1.10;;;22.70;99.90;;;;;;5053480;28;20467;-63
2022/07/08 11:39:20;;;;;;;7.18;1.90;;;22.30;99.90;;;;;;5053667;28;20016;-62
2022/07/08 11:41:46;;;;;;;10.73;1.90;;;22.10;99.90;;;;;;5052493;28;20017;-63
2022/07/08 11:44:12;;;;;;;6.13;1.25;;;22.10;99.90;;;;;;5052890;28;20502;-63
2022/07/08 11:46:45;;;;;;;3.90;1.60;;;22.20;99.90;;;;;;5052853;28;20044;-63
2022/07/08 11:49:11;;;;;;;3.67;1.88;;;22.60;99.90;;;;;;5053311;28;20017;-64
2022/07/08 11:51:37;;;;;;;5.00;1.40;;;23.10;99.90;;;;;;5052828;28;20025;-62
2022/07/08 11:54:02;;;;;;;6.30;1.23;;;23.40;99.90;;;;;;5052590;28;20051;-63
2022/07/08 11:56:28;;;;;;;10.80;1.65;;;23.80;99.90;;;;;;5052790;28;20653;-62
2022/07/08 11:58:54;;;;;;;8.18;1.63;;;23.70;99.90;;;;;;5053127;28;20033;-62
2022/07/08 12:01:26;;;;;;;3.10;1.30;;;23.50;99.90;;;;;;5052123;28;20049;-63
2022/07/08 12:03:51;;;;;;;9.88;1.60;;;22.90;99.90;;;;;;5052210;28;20039;-63
2022/07/08 12:06:25;;;;;;;3.20;1.25;;;22.80;99.90;;;;;;5052923;28;20048;-62
2022/07/08 12:08:51;;;;;;;5.87;1.23;;;22.80;99.90;;;;;;5052938;28;20014;-62
2022/07/08 12:11:18;;;;;;;9.63;2.33;;;23.00;99.90;;;;;;5052862;28;21070;-61
2022/07/08 12:13:49;;;;;;;3.83;1.70;;;23.20;99.90;;;;;;5052508;28;20040;-61
2022/07/08 12:16:33;;;;;;;3.60;1.30;;;23.50;99.90;;;;;;5053099;28;20053;-60
2022/07/08 12:19:00;;;;;;;4.00;1.33;;;23.90;99.90;;;;;;5052549;28;20051;-60
2022/07/08 12:21:26;;;;;;;8.05;1.55;;;24.20;99.90;;;;;;5052266;28;20021;-60
2022/07/08 12:24:03;;;;;;;5.78;1.50;;;24.20;99.90;;;;;;5052872;28;20087;-62
2022/07/08 12:26:29;;;;;;;3.95;1.40;;;24.50;99.90;;;;;;5052884;28;20532;-63
2022/07/08 12:28:55;;;;;;;5.68;1.00;;;24.30;99.90;;;;;;5052098;28;20116;-63
2022/07/08 12:31:38;;;;;;;6.95;1.10;;;23.90;99.90;;;;;;5052799;28;20071;-62
2022/07/08 12:34:05;;;;;;;3.72;1.20;;;24.00;99.90;;;;;;5052847;28;20569;-63
2022/07/08 12:36:32;;;;;;;3.15;1.25;;;24.20;99.90;;;;;;5052484;28;20017;-63
2022/07/08 12:39:14;;;;;;;5.20;1.05;;;24.50;99.90;;;;;;5052498;28;20475;-63
2022/07/08 12:41:41;;;;;;;3.88;1.00;;;24.20;99.90;;;;;;5052306;28;20425;-62
2022/07/08 12:44:29;;;;;;;2.90;1.13;;;24.10;99.90;;;;;;5052589;28;20497;-61
2022/07/08 12:46:55;;;;;;;2.78;1.08;;;23.80;99.90;;;;;;5051868;28;20548;-62